This is the latest recevied weather packets stored in our database for station/object DL4MGC-10. If no packets are shown the sender has not sent any weather packets the latest 10 day(s).
| Time | Temp. | Humidity | Pressure | Rain* | Wind** | Luminosity | Snow |
|---|---|---|---|---|---|---|---|
| 1787893872 | 20° C | 100% | 1011.7 hPa | - | - | - | - |
| 1787892972 | 20° C | 100% | 1011.6 hPa | - | - | - | - |
| 1787892072 | 20° C | 100% | 1011.7 hPa | - | - | - | - |
| 1787891172 | 20.56° C | 97% | 1011.3 hPa | - | - | - | - |
| 1787890272 | 19.44° C | 100% | 1011.1 hPa | - | - | - | - |
| 1787889372 | 19.44° C | 100% | 1011 hPa | - | - | - | - |
| 1787888472 | 19.44° C | 100% | 1011 hPa | - | - | - | - |
| 1787887572 | 20.56° C | 97% | 1011.6 hPa | - | - | - | - |
| 1787886671 | 21.11° C | 97% | 1012 hPa | - | - | - | - |
| 1787885771 | 20.56° C | 97% | 1012.1 hPa | - | - | - | - |
| 1787884871 | 21.11° C | 97% | 1012.1 hPa | - | - | - | - |
| 1787883971 | 21.11° C | 95% | 1011.5 hPa | - | - | - | - |
| 1787883071 | 21.11° C | 95% | 1011.4 hPa | - | - | - | - |
| 1787882171 | 21.11° C | 96% | 1011.6 hPa | - | - | - | - |
| 1787881271 | 21.11° C | 95% | 1011.4 hPa | - | - | - | - |
| 1787880371 | 21.11° C | 96% | 1011.4 hPa | - | - | - | - |
| 1787879471 | 21.67° C | 92% | 1011.4 hPa | - | - | - | - |
| 1787878570 | 21.67° C | 92% | 1011.6 hPa | - | - | - | - |
| 1787877670 | 22.22° C | 89% | 1011.6 hPa | - | - | - | - |
| 1787876770 | 21.67° C | 93% | 1011.6 hPa | - | - | - | - |
| 1787875870 | 21.67° C | 92% | 1011.4 hPa | - | - | - | - |
| 1787874970 | 21.67° C | 92% | 1011.8 hPa | - | - | - | - |
| 1787874070 | 21.67° C | 92% | 1011.7 hPa | - | - | - | - |
| 1787873170 | 21.67° C | 91% | 1011.7 hPa | - | - | - | - |
| 1787872270 | 22.22° C | 90% | 1011.9 hPa | - | - | - | - |
* Rain since midnight (hover to see other rain measurements)
** Current wind speed in m/s (hover to see current wind gust speed)